Sunset Whitney Ranch, California
Current Conditions -  °F | °C
As of 12:55 PM on Thursday 18 Dec 2014 (Local Time) from KLHM Reporting Station
Scattered Clouds Scattered Clouds  
Wind Chill: 59°   Ceiling: Unl
Heat Index: 59°   Visibility: 10mi
Dew Point: 43°   Wind: 6mph
Humidity: 55%   Direction: 150°SSE
Pressure: 30.16"   Gusts: NA
Location:  38.8019°N, 121.249°W
Report Text: KLHM 182055Z AUTO 15005KT 10SM SCT042 SCT055 15/06 A3016 RMK AO1
Loading
Personal Weather Stations






























Interactive Weather Map New forecast layout! Learn more

10-Day Weather Forecast

Advertisements
Track Severe Weather on mobile